Tiempo atmosférico en la estación meteorológica de Tejeda, Cruz de Tejeda, Las Palmas (1514 m.)



Fecha
DESCASC
Temp. máxima en grados centígrados (hora)
DESCASC
Temp. mínima en grados centígrados (hora)
DESCASC
Temp. media en grados centígrados
DESCASC
Racha de viento máxima en m/sg (hora)
DESCASC
Velocidad máxima media en intervalos de 10 minutos(hora)
DESCASC
Precipitaciones diarias en mm
DESCASC
Precipitaciones de 00:00 a 06:00 en mm
DESCASC
Precipitaciones de 06:00 a 12:00 en mm
DESCASC
Precipitaciones de 12:00 a 18:00 en mm
DESCASC
Precipitaciones de 18:00 a 24:00 en mm
DESCASC
11-12-2019 14.6 (15:40) 6.8 (17:40) 10.7 13.89 (21:00) 9.17 (21:00) -- -- -- -- --
10-12-2019 13.4 (12:50) 7.8 (20:40) 10.6 15.28 (21:20) 9.17 (21:20) -- -- -- -- --
09-12-2019 10.6 (23:10) 5.6 (02:50) 8.1 18.61 (01:30) 8.89 (02:30) -- -- -- -- --
08-12-2019 7.3 (00:10) 5.3 (00:00) 6.3 21.11 (15:50) 8.33 (22:10) -- -- -- -- --
07-12-2019 7.9 (10:10) 5.3 (00:00) 6.6 19.17 (20:50) 8.33 (06:40) -- -- -- -- --
06-12-2019 7 (10:00) 4.9 (00:00) 6 16.67 (11:00) 7.5 (08:50) -- -- -- -- --
05-12-2019 8.4 (01:40) 4.5 (00:00) 6.4 12.78 (22:00) 3.89 (12:00) -- -- -- -- --
04-12-2019 10 (16:00) 4.9 (00:00) 7.5 9.72 (21:40) 3.61 (22:30) -- -- -- -- --
03-12-2019 7.7 (13:20) 5.4 (00:00) 6.5 9.17 (11:00) 2.78 (11:00) -- -- -- -- --
02-12-2019 12.7 (00:10) 6.7 (00:00) 9.7 10 (15:30) 4.72 (02:20) -- -- -- -- --
01-12-2019 19.3 (12:50) 11.3 (00:00) 15.3 8.06 (13:40) 3.33 (00:10) -- -- -- -- --
30-11-2019 19.2 (16:50) 14.6 (00:00) 16.9 9.72 (00:10) 5.83 (02:20) -- -- -- -- --
29-11-2019 20.6 (16:40) 13.3 (00:00) 17 13.33 (09:10) 8.33 (08:30) -- -- -- -- --
28-11-2019 15.2 (13:10) 10.5 (00:00) 12.8 8.33 (03:30) 5.83 (04:10) -- -- -- -- --
27-11-2019 14.8 (16:50) 10.4 (00:00) 12.6 8.89 (21:00) 6.39 (21:00) -- -- -- -- --
26-11-2019 17.3 (15:40) 12 (00:00) 14.6 8.89 (22:30) 6.67 (22:10) -- -- -- -- --
25-11-2019 16.5 (11:40) 9.5 (00:00) 13 9.17 (23:50) 6.11 (23:50) -- -- -- -- --
24-11-2019 14 (22:20) 8.4 (00:00) 11.2 14.17 (05:50) 9.44 (06:50) -- -- -- -- --
23-11-2019 13.4 (10:50) 8.2 (00:00) 10.8 16.67 (19:50) 6.94 (22:40) -- -- -- -- --
22-11-2019 17.7 (16:20) 9.8 (00:00) 13.8 7.22 (14:20) 3.61 (14:20) -- -- -- -- --
21-11-2019 14.9 (15:50) 8.9 (00:00) 11.9 9.17 (04:50) 6.11 (09:20) -- -- -- -- --
20-11-2019 16.5 (14:30) 6.9 (00:00) 11.7 5.28 (16:30) 3.61 (23:50) -- -- -- -- --
19-11-2019 -- (--) -- (--) -- -- (--) -- (--) -- -- -- -- --
18-11-2019 9.4 (12:00) 4.5 (00:00) 6.9 12.78 (19:50) 8.89 (19:50) -- -- -- -- --
17-11-2019 6.9 (14:10) 5.4 (00:00) 6.2 16.39 (12:40) 6.67 (16:00) -- -- -- -- --
16-11-2019 7.2 (20:10) 5.6 (00:00) 6.4 21.94 (18:30) 10.56 (13:50) -- -- -- -- --
15-11-2019 8.8 (07:50) 6 (00:00) 7.4 19.44 (21:00) 11.11 (04:00) -- -- -- -- --

Gráficas

Temp. máximas Temp. mínimas Temp. medias Precipitaciones Rachas de viento máximas Velocidades máximas media en intervalos de 10 minutos

Datos horarios

Fecha y hora oficial Temperatura (ºC) Velocidad del viento (km/h) Dirección del viento Racha (km/h) Dirección de racha Precipitación (mm) Presión (hPa) Tendencia (hPa) Humedad (%)
2019-12-14 23:00:00 11.1 3 Oeste 14 Oeste -- -- -- 13
2019-12-14 22:00:00 10.6 4 Oeste 12 Oeste -- -- -- 16
2019-12-14 21:00:00 6.1 3 Este 13 Este -- -- -- 99
2019-12-14 20:00:00 6.9 4 Nordeste 11 Este -- -- -- 98
2019-12-14 19:00:00 8.3 4 Oeste 19 Oeste -- -- -- 96
2019-12-14 18:00:00 9.2 7 Oeste 22 Oeste -- -- -- 97
2019-12-14 17:00:00 10.3 6 Sudoeste 21 Oeste -- -- -- 92
2019-12-14 16:00:00 11.9 9 Oeste 19 Oeste -- -- -- 89
2019-12-14 15:00:00 13.8 6 Oeste 16 Sudoeste -- -- -- 77
2019-12-14 14:00:00 12.6 7 Oeste 15 Oeste -- -- -- 71
2019-12-14 13:00:00 12.3 7 Oeste 13 Oeste -- -- -- 67
2019-12-14 12:00:00 12.7 3 Sudeste 7 Este -- -- -- 74
2019-12-14 11:00:00 12.7 3 Sudeste 8 Este -- -- -- 57
2019-12-14 10:00:00 7.7 2 Este 12 Este -- -- -- 96
2019-12-14 09:00:00 10.6 0 Calma 8 Nordeste -- -- -- 45
2019-12-14 08:00:00 6.7 3 Este 7 Este -- -- -- 63
2019-12-14 07:00:00 8.2 0 Calma 10 Nordeste -- -- -- 40
2019-12-14 06:00:00 8.8 5 Oeste 9 Oeste -- -- -- 57
2019-12-14 05:00:00 4.5 3 Oeste 17 Este -- -- -- 93
2019-12-14 04:00:00 6.2 4 Este 22 Nordeste -- -- -- 100
2019-12-14 03:00:00 5.8 14 Nordeste 20 Nordeste -- -- -- 100
2019-12-14 02:00:00 6.1 6 Este 23 Nordeste -- -- -- 99
2019-12-14 01:00:00 4.8 6 Este 26 Este -- -- -- 97
2019-12-14 00:00:00 7.9 15 Este 25 Nordeste -- -- -- 68
2019-12-13 23:00:00 5.1 7 Este 30 Nordeste -- -- -- 97
2019-12-13 22:00:00 9.2 19 Este 33 Nordeste -- -- -- 40
2019-12-13 21:00:00 5.5 5 Este 26 Este -- -- -- 100
2019-12-13 20:00:00 4.8 6 Este 23 Nordeste -- -- -- 100
2019-12-13 19:00:00 5.6 6 Este 28 Nordeste -- -- -- 89
2019-12-13 18:00:00 5.9 3 Este 16 Nordeste -- -- -- 100
2019-12-13 17:00:00 7 4 Este 16 Este -- -- -- 100
2019-12-13 16:00:00 7.2 3 Este 15 Este -- -- -- 99
2019-12-13 15:00:00 7.6 3 Este 13 Nordeste -- -- -- 99
2019-12-13 14:00:00 8.4 3 Este 17 Nordeste -- -- -- 95
2019-12-13 13:00:00 8.2 4 Este 18 Nordeste -- -- -- 100
2019-12-13 12:00:00 6.7 4 Este 21 Nordeste -- -- -- 100
2019-12-13 11:00:00 6.2 5 Este 31 Este -- -- -- 100
2019-12-13 10:00:00 5.4 6 Este 32 Este -- -- -- 100
2019-12-13 09:00:00 4.6 6 Este 38 Nordeste -- -- -- 100
2019-12-13 08:00:00 4.4 12 Este 42 Nordeste -- -- -- 100
2019-12-13 07:00:00 4.4 17 Este 46 Este -- -- -- 100
2019-12-13 06:00:00 4.3 17 Este 47 Este -- -- -- 100
2019-12-13 05:00:00 5.3 17 Este 49 Este -- -- -- 100
2019-12-13 04:00:00 5.1 11 Este 52 Nordeste -- -- -- 100
2019-12-13 03:00:00 5 17 Este 55 Este -- -- -- 100
2019-12-13 02:00:00 4.7 9 Este 54 Este -- -- -- 100
2019-12-13 01:00:00 5.1 14 Este 50 Este -- -- -- 100
2019-12-13 00:00:00 5 11 Este 58 Nordeste -- -- -- 100
2019-12-12 23:00:00 5.2 10 Este 52 Este -- -- -- 100
2019-12-12 22:00:00 6.1 7 Este 42 Este -- -- -- 100
2019-12-12 21:00:00 5.9 13 Este 48 Este -- -- -- 100
2019-12-12 20:00:00 6.1 11 Sudeste 53 Sudeste -- -- -- 100
2019-12-12 19:00:00 6.2 8 Este 50 Este -- -- -- 100
2019-12-12 18:00:00 7.1 13 Sudeste 61 Sudeste -- -- -- 100
2019-12-12 17:00:00 7.7 13 Sudeste 45 Nordeste -- -- -- 100
2019-12-12 16:00:00 7.9 9 Este 39 Este -- -- -- 99
2019-12-12 15:00:00 8.2 6 Este 45 Nordeste -- -- -- 99
2019-12-12 14:00:00 8.5 10 Este 52 Nordeste -- -- -- 99
2019-12-12 13:00:00 8 13 Este 45 Nordeste -- -- -- 99
2019-12-12 12:00:00 8 10 Este 54 Este -- -- -- 98
2019-12-12 11:00:00 8.5 8 Este 46 Este -- -- -- 89
2019-12-12 10:00:00 8.3 8 Este 45 Este -- -- -- 73
2019-12-12 09:00:00 5.9 6 Este 48 Nordeste -- -- -- 96
2019-12-12 08:00:00 5.5 6 Este 50 Nordeste -- -- -- 93
2019-12-12 07:00:00 8.8 31 Este 58 Nordeste -- -- -- 27
2019-12-12 06:00:00 8 28 Este 53 Nordeste -- -- -- 44
2019-12-12 05:00:00 9.1 29 Este 52 Nordeste -- -- -- 23
2019-12-12 04:00:00 8.5 19 Este 50 Este -- -- -- 32
2019-12-12 03:00:00 9 32 Este 50 Nordeste -- -- -- 28
2019-12-12 02:00:00 8.3 17 Este 51 Este -- -- -- 43
2019-12-12 01:00:00 9.2 27 Este 44 Este -- -- -- 39
2019-12-12 00:00:00 7.5 12 Este 47 Este -- -- -- 52
2019-12-11 23:00:00 9.9 16 Este 46 Nordeste -- -- -- 30
2019-12-11 22:00:00 9 24 Este 50 Este -- -- -- 31
2019-12-11 21:00:00 10.3 33 Este 50 Nordeste -- -- -- 22
2019-12-11 20:00:00 9.4 14 Este 43 Este -- -- -- 54
2019-12-11 19:00:00 10.2 9 Este 31 Nordeste -- -- -- 47
2019-12-11 18:00:00 8.8 5 Este 34 Nordeste -- -- -- 69
2019-12-11 17:00:00 8.5 3 Este 10 Este -- -- -- 97
2019-12-11 16:00:00 11.3 2 Este 13 Sudeste -- -- -- 85
2019-12-11 15:00:00 9.5 3 Este 12 Nordeste -- -- -- 96
2019-12-11 14:00:00 11.1 5 Sudeste 15 Sudeste -- -- -- 92
2019-12-11 13:00:00 11.5 3 Este 11 Este -- -- -- 85
2019-12-11 12:00:00 11.5 3 Este 9 Este -- -- -- 85
2019-12-11 11:00:00 12.9 3 Este 10 Nordeste -- -- -- 78
2019-12-11 10:00:00 12.8 5 Este 11 Este -- -- -- 63
2019-12-11 09:00:00 12.7 3 Este 20 Este -- -- -- 35
2019-12-11 08:00:00 9.7 9 Este 32 Nordeste -- -- -- 45
2019-12-11 07:00:00 10.6 18 Este 32 Este -- -- -- 31
2019-12-11 06:00:00 11.6 24 Nordeste 35 Nordeste -- -- -- 18
2019-12-11 05:00:00 11 27 Nordeste 38 Este -- -- -- 33
2019-12-11 04:00:00 11.2 22 Este 41 Este -- -- -- 26
2019-12-11 03:00:00 10.1 15 Este 39 Nordeste -- -- -- 35
2019-12-11 02:00:00 8.3 28 Nordeste 42 Nordeste -- -- -- 99
2019-12-11 01:00:00 8.1 12 Este 45 Este -- -- -- 100
2019-12-11 00:00:00 8.4 11 Este 50 Nordeste -- -- -- 99
2019-12-10 23:00:00 8.3 16 Este 48 Este -- -- -- 99
2019-12-10 22:00:00 8.5 14 Este 55 Este -- -- -- 98
2019-12-10 21:00:00 8.3 23 Este 53 Este -- -- -- 91
2019-12-10 20:00:00 10 23 Este 53 Nordeste -- -- -- 66
2019-12-10 19:00:00 9.8 10 Este 41 Nordeste -- -- -- 62
2019-12-10 18:00:00 10 15 Este 37 Este -- -- -- 48
2019-12-10 17:00:00 9.6 5 Este 31 Este -- -- -- 82
2019-12-10 16:00:00 11.2 8 Este 28 Nordeste -- -- -- 58
2019-12-10 15:00:00 11.4 3 Este 12 Este -- -- -- 82
2019-12-10 14:00:00 12.2 3 Este 18 Nordeste -- -- -- 47
2019-12-10 13:00:00 13.2 3 Este 23 Nordeste -- -- -- 26
2019-12-10 12:00:00 13.1 5 Este 27 Este -- -- -- 25
2019-12-10 11:00:00 12.7 5 Este 24 Nordeste -- -- -- 26
2019-12-10 10:00:00 13.1 4 Este 24 Nordeste -- -- -- 21
2019-12-10 09:00:00 12.1 14 Este 28 Nordeste -- -- -- 19
2019-12-10 08:00:00 10.7 20 Este 29 Nordeste -- -- -- 19
2019-12-10 07:00:00 8.8 14 Este 26 Nordeste -- -- -- 27
2019-12-10 06:00:00 9.7 17 Este 27 Nordeste -- -- -- 23
2019-12-10 05:00:00 9.9 17 Este 28 Nordeste -- -- -- 22
2019-12-10 04:00:00 9.6 12 Este 29 Nordeste -- -- -- 22
2019-12-10 03:00:00 9.3 18 Este 31 Este -- -- -- 21
2019-12-10 02:00:00 8.7 9 Este 34 Este -- -- -- 23
2019-12-10 01:00:00 10.1 25 Nordeste 33 Nordeste -- -- -- 23
2019-12-10 00:00:00 10 21 Nordeste 36 Este -- -- -- 23
2019-12-09 23:00:00 10.3 19 Este 31 Nordeste -- -- -- 20
2019-12-09 22:00:00 8.8 20 Este 32 Nordeste -- -- -- 34
2019-12-09 21:00:00 7.9 21 Este 30 Este -- -- -- 49
2019-12-09 20:00:00 6.1 14 Este 28 Nordeste -- -- -- 83
2019-12-09 19:00:00 7.7 14 Este 28 Este -- -- -- 57
2019-12-09 18:00:00 7.9 2 Este 10 Nordeste -- -- -- 64
2019-12-09 17:00:00 9.4 0 Calma 12 Nordeste -- -- -- 63
2019-12-09 16:00:00 9.1 3 Este 15 Este -- -- -- 94
2019-12-09 15:00:00 8.9 2 Este 25 Nordeste -- -- -- 99
2019-12-09 14:00:00 8.1 4 Este 29 Nordeste -- -- -- 100
2019-12-09 13:00:00 8 6 Este 32 Este -- -- -- 100
2019-12-09 12:00:00 7.4 8 Este 37 Nordeste -- -- -- 100
2019-12-09 11:00:00 7.3 4 Este 36 Nordeste -- -- -- 100
2019-12-09 10:00:00 6.6 8 Este 37 Este -- -- -- 100
2019-12-09 09:00:00 6.4 12 Este 51 Este -- -- -- 100
2019-12-09 08:00:00 6.2 12 Este 48 Nordeste -- -- -- 100
2019-12-09 07:00:00 6.3 12 Este 51 Nordeste -- -- -- 100
2019-12-09 06:00:00 6 8 Este 45 Nordeste -- -- -- 100
2019-12-09 05:00:00 5.8 10 Este 53 Este -- -- -- 100
2019-12-09 04:00:00 5.8 14 Este 62 Este -- -- -- 100
2019-12-09 03:00:00 5.7 27 Este 65 Este -- -- -- 100
2019-12-09 02:00:00 6.2 25 Este 67 Nordeste -- -- -- 100
2019-12-09 01:00:00 5.9 15 Este 63 Este -- -- -- 100
2019-12-09 00:00:00 5.9 17 Este 64 Este -- -- -- 100
2019-12-08 23:00:00 5.5 15 Este 62 Nordeste -- -- -- 100
2019-12-08 22:00:00 6.2 14 Este 63 Este -- -- -- 100
2019-12-08 21:00:00 5.8 11 Este 58 Este -- -- -- 100
2019-12-08 20:00:00 6 12 Este 55 Este -- -- -- 100
2019-12-08 19:00:00 5.5 15 Este 53 Este -- -- -- 100
2019-12-08 18:00:00 5.4 10 Este 65 Sudeste -- -- -- 100
2019-12-08 17:00:00 5.9 13 Este 56 Nordeste -- -- -- 100
2019-12-08 16:00:00 6.6 16 Este 76 Este -- -- -- 100
2019-12-08 15:00:00 6.7 13 Este 65 Este -- -- -- 100
2019-12-08 14:00:00 6.5 15 Este 61 Este -- -- -- 100
2019-12-08 13:00:00 6.7 18 Este 68 Este -- -- -- 100
2019-12-08 12:00:00 6.8 18 Este 57 Sudeste -- -- -- 100
2019-12-08 11:00:00 6.2 22 Este 59 Nordeste -- -- -- 100
2019-12-08 10:00:00 5.4 17 Este 57 Este -- -- -- 100
2019-12-08 09:00:00 6.1 15 Este 52 Este -- -- -- 100
2019-12-08 08:00:00 5.4 14 Este 57 Este -- -- -- 100
2019-12-08 07:00:00 5.6 18 Este 57 Este -- -- -- 100
2019-12-08 06:00:00 5.8 14 Este 58 Este -- -- -- 100
2019-12-08 05:00:00 5.8 22 Este 63 Sudeste -- -- -- 100
2019-12-08 04:00:00 6.1 24 Este 57 Este -- -- -- 100
2019-12-08 03:00:00 6.3 22 Este 58 Sudeste -- -- -- 100
2019-12-08 02:00:00 7 18 Este 60 Sudeste -- -- -- 100
2019-12-08 01:00:00 7 17 Este 62 Este -- -- -- 100
2019-12-08 00:00:00 7.1 23 Este 64 Nordeste -- -- -- 100
2019-12-07 23:00:00 6.6 25 Este 68 Este -- -- -- 100
2019-12-07 22:00:00 7.2 19 Este 69 Sudeste -- -- -- 100
2019-12-07 21:00:00 7.1 21 Este 69 Sudeste -- -- -- 100
2019-12-07 20:00:00 7.1 19 Este 63 Sudeste -- -- -- 100
2019-12-07 19:00:00 7.1 22 Este 57 Este -- -- -- 100
2019-12-07 18:00:00 7.2 25 Este 60 Sudeste -- -- -- 100
2019-12-07 17:00:00 7.1 18 Este 59 Sudeste -- -- -- 100
2019-12-07 16:00:00 7.5 22 Este 51 Este -- -- -- 100
2019-12-07 15:00:00 6.9 17 Este 52 Este -- -- -- 100
2019-12-07 14:00:00 7.1 18 Este 53 Este -- -- -- 100
2019-12-07 13:00:00 7.2 17 Este 55 Nordeste -- -- -- 100
2019-12-07 12:00:00 6.8 22 Este 56 Este -- -- -- 100
2019-12-07 11:00:00 6.5 19 Este 59 Sudeste -- -- -- 100
2019-12-07 10:00:00 7.7 24 Este 62 Sudeste -- -- -- 100
2019-12-07 09:00:00 6.9 17 Este 54 Nordeste -- -- -- 100
2019-12-07 08:00:00 6.4 19 Este 53 Sudeste -- -- -- 100
2019-12-07 07:00:00 5.7 22 Este 54 Nordeste -- -- -- 100
2019-12-07 06:00:00 6.2 22 Este 53 Sudeste -- -- -- 100
2019-12-07 05:00:00 5.9 18 Este 53 Este -- -- -- 100
2019-12-07 04:00:00 5.4 18 Este 55 Sudeste -- -- -- 100
2019-12-07 03:00:00 5.8 21 Este 59 Sudeste -- -- -- 100
2019-12-07 02:00:00 5.8 20 Este 59 Nordeste -- -- -- 100
2019-12-07 01:00:00 5.6 10 Este 44 Sudeste -- -- -- 100
2019-12-07 00:00:00 5.5 22 Sudeste 47 Sudeste -- -- -- 100
2019-12-06 23:00:00 6.2 6 Sudeste 42 Este -- -- -- 100
2019-12-06 22:00:00 6 15 Este 51 Sudeste -- -- -- 100
2019-12-06 21:00:00 6.7 11 Este 36 Sudeste -- -- -- 100
2019-12-06 20:00:00 6.7 14 Este 40 Sudeste -- -- -- 100
2019-12-06 19:00:00 6.1 8 Este 38 Este -- -- -- 100
2019-12-06 18:00:00 6.2 7 Este 40 Sudeste -- -- -- 100
2019-12-06 17:00:00 6.5 9 Este 41 Nordeste -- -- -- 100
2019-12-06 16:00:00 6.6 9 Este 36 Nordeste -- -- -- 100
2019-12-06 15:00:00 6.6 5 Este 22 Este -- -- -- 100
2019-12-06 14:00:00 6.8 6 Sudeste 34 Sudeste -- -- -- 100
2019-12-06 13:00:00 6.8 8 Este 52 Este -- -- -- 100
2019-12-06 12:00:00 6.6 26 Sudeste 59 Sudeste -- -- -- 100
2019-12-06 11:00:00 6.7 27 Sudeste 60 Sudeste -- -- -- 100
2019-12-06 10:00:00 7 17 Sudeste 44 Sudeste -- -- -- 100
2019-12-06 09:00:00 6.1 19 Sudeste 54 Este -- -- -- 100
2019-12-06 08:00:00 5.5 13 Este 45 Sudeste -- -- -- 100
2019-12-06 07:00:00 5.6 12 Este 53 Este -- -- -- 100
2019-12-06 06:00:00 6.1 15 Este 55 Este -- -- -- 100
2019-12-06 05:00:00 5.9 12 Este 43 Sudeste -- -- -- 100
2019-12-06 04:00:00 5.5 15 Este 43 Sudeste -- -- -- 100
2019-12-06 03:00:00 5.6 10 Este 38 Este -- -- -- 100
2019-12-06 02:00:00 5.6 10 Este 30 Nordeste -- -- -- 100
2019-12-06 01:00:00 5.7 9 Este 32 Sudeste -- -- -- 100
2019-12-06 00:00:00 5.8 9 Este 42 Sudeste -- -- -- 100
2019-12-05 23:00:00 5.7 8 Este 36 Nordeste -- -- -- 100
2019-12-05 22:00:00 5.6 9 Nordeste 46 Nordeste -- -- -- 100
2019-12-05 21:00:00 5.4 7 Este 37 Sudeste -- -- -- 100
2019-12-05 20:00:00 5.6 7 Nordeste 35 Oeste -- -- -- 100
2019-12-05 19:00:00 4.6 6 Sudoeste 28 Oeste -- -- -- 100
2019-12-05 18:00:00 4.8 8 Noroeste 30 Sur -- -- -- 100
2019-12-05 17:00:00 5.4 6 Nordeste 38 Noroeste -- -- -- 100
2019-12-05 16:00:00 5.7 5 Oeste 34 Sudoeste -- -- -- 100
2019-12-05 15:00:00 6.1 7 Norte 24 Sudoeste -- -- -- 100
2019-12-05 14:00:00 5.9 11 Noroeste 36 Noroeste -- -- -- 100
2019-12-05 13:00:00 5.8 5 Noroeste 30 Oeste -- -- -- 100
2019-12-05 12:00:00 5.9 14 Noroeste 31 Noroeste -- -- -- 100
2019-12-05 11:00:00 5.8 11 Noroeste 31 Norte -- -- -- 100
2019-12-05 10:00:00 5.4 6 Nordeste 36 Oeste -- -- -- 100
2019-12-05 09:00:00 5 6 Noroeste 26 Oeste -- -- -- 100
2019-12-05 08:00:00 4.8 5 Oeste 32 Este -- -- -- 100
2019-12-05 07:00:00 4.6 8 Norte 27 Nordeste -- -- -- 100
2019-12-05 06:00:00 5.5 6 Sudeste 26 Nordeste -- -- -- 100
2019-12-05 05:00:00 5.8 6 Sur 27 Sudoeste -- -- -- 100
2019-12-05 04:00:00 7.3 6 Noroeste 26 Noroeste -- -- -- 100
2019-12-05 03:00:00 7.7 8 Noroeste 30 Oeste -- -- -- 100
2019-12-05 02:00:00 8.4 8 Oeste 25 Oeste -- -- -- 100
2019-12-05 01:00:00 7.9 8 Oeste 18 Oeste -- -- -- 100
2019-12-05 00:00:00 7.7 8 Oeste 30 Oeste -- -- -- 100
2019-12-04 23:00:00 7.7 10 Oeste 29 Oeste -- -- -- 100
2019-12-04 22:00:00 7.3 10 Oeste 35 Oeste -- -- -- 100
2019-12-04 21:00:00 7.6 11 Oeste 28 Oeste -- -- -- 100
2019-12-04 20:00:00 7.6 4 Noroeste 16 Oeste -- -- -- 100
2019-12-04 19:00:00 7.3 7 Oeste 23 Sudoeste -- -- -- 99
2019-12-04 18:00:00 7.4 5 Sudeste 19 Nordeste -- -- -- 98
2019-12-04 17:00:00 8 5 Oeste 19 Noroeste -- -- -- 96
2019-12-04 16:00:00 10 6 Oeste 16 Oeste -- -- -- 87
2019-12-04 15:00:00 8.7 8 Oeste 22 Sudeste -- -- -- 92
2019-12-04 14:00:00 7.6 8 Oeste 21 Noroeste -- -- -- 99
2019-12-04 13:00:00 7.6 4 Oeste 12 Oeste -- -- -- 97
2019-12-04 12:00:00 8.5 4 Norte 12 Noroeste -- -- -- 88
2019-12-04 11:00:00 7.3 4 Oeste 16 Oeste -- -- -- 89
2019-12-04 10:00:00 6.5 3 Oeste 17 Sudoeste -- -- -- 94
2019-12-04 09:00:00 5.9 5 Noroeste 15 Oeste -- -- -- 98
2019-12-04 08:00:00 5.4 4 Sudoeste 18 Oeste -- -- -- 100
2019-12-04 07:00:00 5.7 2 Oeste 13 Nordeste -- -- -- 100
2019-12-04 06:00:00 6.5 4 Sur 13 Sudeste -- -- -- 99
2019-12-04 05:00:00 5.6 4 Nordeste 16 Sudeste -- -- -- 97
2019-12-04 04:00:00 5.2 2 Nordeste 15 Sudeste -- -- -- 96
2019-12-04 03:00:00 4.9 2 Nordeste 10 Sur -- -- -- 96
2019-12-04 02:00:00 5.5 0 Calma 23 Sudeste -- -- -- 99
2019-12-04 01:00:00 5.5 4 Este 22 Este -- -- -- 99
2019-12-04 00:00:00 5.9 4 Este 23 Sudeste -- -- -- 99
2019-12-03 23:00:00 5.7 3 Este 18 Nordeste -- -- -- 97
2019-12-03 22:00:00 5.8 4 Este 19 Este -- -- -- 98
2019-12-03 21:00:00 5.7 4 Este 20 Este -- -- -- 98
2019-12-03 20:00:00 5.5 3 Este 18 Este -- -- -- 97
2019-12-03 19:00:00 5.9 0 Calma 13 Noroeste -- -- -- 95
2019-12-03 18:00:00 5.9 3 Este 13 Sudeste -- -- -- 96
2019-12-03 17:00:00 6.3 6 Este 26 Este -- -- -- 99
2019-12-03 16:00:00 6.6 4 Sudeste 20 Sudeste -- -- -- 99
2019-12-03 15:00:00 7 2 Este 19 Este -- -- -- 99
2019-12-03 14:00:00 7.5 3 Este 22 Sudeste -- -- -- 98
2019-12-03 13:00:00 7 5 Este 19 Norte -- -- -- 99
2019-12-03 12:00:00 6.9 7 Este 26 Nordeste -- -- -- 100
2019-12-03 11:00:00 6 10 Este 33 Este -- -- -- 100
2019-12-03 10:00:00 5.7 6 Oeste 30 Noroeste -- -- -- 100
2019-12-03 09:00:00 6 8 Norte 30 Oeste -- -- -- 100
2019-12-03 08:00:00 6 5 Sudoeste 23 Oeste -- -- -- 100
2019-12-03 07:00:00 6.1 7 Sudoeste 24 Nordeste -- -- -- 99
2019-12-03 06:00:00 6.3 5 Oeste 24 Noroeste -- -- -- 100
2019-12-03 05:00:00 6.2 8 Norte 26 Oeste -- -- -- 100
2019-12-03 04:00:00 6.6 4 Sudeste 24 Sudoeste -- -- -- 100
2019-12-03 03:00:00 6.6 5 Oeste 19 Noroeste -- -- -- 99
2019-12-03 02:00:00 6.7 4 Nordeste 18 Oeste -- -- -- 99
2019-12-03 01:00:00 7 3 Oeste 21 Noroeste -- -- -- 99
2019-12-03 00:00:00 6.8 5 Sudeste 20 Noroeste -- -- -- 99
2019-12-02 23:00:00 6.7 5 Sudoeste 22 Sur -- -- -- 99
2019-12-02 22:00:00 6.7 6 Oeste 21 Sur -- -- -- 99
2019-12-02 21:00:00 7.4 4 Noroeste 21 Noroeste -- -- -- 98
2019-12-02 20:00:00 7.2 4 Noroeste 20 Sudoeste -- -- -- 98
2019-12-02 19:00:00 7.4 6 Noroeste 22 Sudoeste -- -- -- 92
2019-12-02 18:00:00 7.8 4 Nordeste 26 Oeste -- -- -- 88
2019-12-02 17:00:00 8.8 7 Sudoeste 26 Oeste -- -- -- 89
2019-12-02 16:00:00 9.5 10 Oeste 36 Oeste -- -- -- 86
2019-12-02 15:00:00 9.8 11 Sudoeste 35 Oeste -- -- -- 84
2019-12-02 14:00:00 9.8 9 Oeste 35 Oeste -- -- -- 85
2019-12-02 13:00:00 9.3 4 Este 33 Oeste -- -- -- 97
2019-12-02 12:00:00 8.4 4 Oeste 19 Oeste -- -- -- 98
2019-12-02 11:00:00 9.2 7 Noroeste 23 Sudoeste -- -- -- 98
2019-12-02 10:00:00 9.1 5 Oeste 19 Sudoeste -- -- -- 97
2019-12-02 09:00:00 8.9 5 Sudoeste 20 Noroeste -- -- -- 96
2019-12-02 08:00:00 8.1 7 Noroeste 32 Sudeste -- -- -- 95
2019-12-02 07:00:00 7.9 7 Nordeste 27 Nordeste -- -- -- 80
2019-12-02 06:00:00 7.3 13 Norte 31 Nordeste -- -- -- 94
2019-12-02 05:00:00 7.9 6 Nordeste 26 Norte -- -- -- 97
2019-12-02 04:00:00 8.7 11 Nordeste 26 Norte -- -- -- 96
2019-12-02 03:00:00 7.5 8 Nordeste 28 Nordeste -- -- -- 96
2019-12-02 02:00:00 7.5 9 Este 19 Nordeste -- -- -- 70
2019-12-02 01:00:00 11.4 10 Nordeste 22 Nordeste -- -- -- 26
2019-12-02 00:00:00 12 8 Nordeste 13 Norte -- -- -- 21
2019-12-01 23:00:00 12 2 Nordeste 15 Nordeste -- -- -- 29
2019-12-01 22:00:00 12 4 Este 14 Nordeste -- -- -- 33
2019-12-01 21:00:00 11.3 6 Nordeste 13 Nordeste -- -- -- 38
2019-12-01 20:00:00 13.2 0 Calma 18 Oeste -- -- -- 30
2019-12-01 19:00:00 13.7 4 Oeste 27 Noroeste -- -- -- 38
2019-12-01 18:00:00 14.1 4 Noroeste 18 Noroeste -- -- -- 37
2019-12-01 17:00:00 14.7 4 Sur 12 Oeste -- -- -- 40
2019-12-01 16:00:00 16.3 3 Sudeste 11 Este -- -- -- 67
2019-12-01 15:00:00 17.6 5 Sudeste 25 Oeste -- -- -- 52
2019-12-01 14:00:00 18.9 7 Oeste 29 Oeste -- -- -- 30
2019-12-01 13:00:00 18.9 6 Oeste 22 Oeste -- -- -- 30
2019-12-01 12:00:00 19.1 5 Sudeste 12 Oeste -- -- -- 34
2019-12-01 11:00:00 17.7 3 Noroeste 13 Oeste -- -- -- 30
2019-12-01 10:00:00 16.9 4 Oeste 6 Sudoeste -- -- -- 29
2019-12-01 09:00:00 17.9 0 Calma 5 Nordeste -- -- -- 28
2019-12-01 08:00:00 12.5 0 Calma 5 Este -- -- -- 35
2019-12-01 07:00:00 11.8 3 Nordeste 7 Nordeste -- -- -- 37
2019-12-01 06:00:00 13.3 5 Nordeste 9 Nordeste -- -- -- 34
2019-12-01 05:00:00 12.5 4 Nordeste 10 Nordeste -- -- -- 36
2019-12-01 04:00:00 14.1 6 Nordeste 14 Nordeste -- -- -- 33
2019-12-01 03:00:00 14.5 8 Nordeste 13 Nordeste -- -- -- 31
2019-12-01 02:00:00 14.7 8 Nordeste 14 Nordeste -- -- -- 30
2019-12-01 01:00:00 14.8 11 Nordeste 17 Nordeste -- -- -- 30
2019-12-01 00:00:00 14.8 12 Nordeste 16 Nordeste -- -- -- 28
2019-11-30 23:00:00 15.1 8 Este 17 Nordeste -- -- -- 30
2019-11-30 22:00:00 15.3 10 Nordeste 16 Nordeste -- -- -- 30
2019-11-30 21:00:00 15.4 5 Este 17 Nordeste -- -- -- 29
2019-11-30 20:00:00 15.2 12 Nordeste 18 Nordeste -- -- -- 29
2019-11-30 19:00:00 15.5 9 Este 15 Nordeste -- -- -- 30
2019-11-30 18:00:00 15.8 3 Nordeste 5 Este -- -- -- 36
2019-11-30 17:00:00 17.8 3 Nordeste 12 Nordeste -- -- -- 38
2019-11-30 16:00:00 17.4 3 Este 14 Este -- -- -- 52
2019-11-30 15:00:00 18 3 Este 21 Nordeste -- -- -- 38
2019-11-30 14:00:00 18.5 5 Este 19 Este -- -- -- 31
2019-11-30 13:00:00 18.3 3 Este 25 Este -- -- -- 31
2019-11-30 12:00:00 18.7 4 Este 18 Sudeste -- -- -- 29
2019-11-30 11:00:00 18.6 3 Este 13 Este -- -- -- 28
2019-11-30 10:00:00 17.7 3 Este 19 Este -- -- -- 28
2019-11-30 09:00:00 17.3 5 Este 20 Nordeste -- -- -- 30
2019-11-30 08:00:00 15.4 5 Este 18 Nordeste -- -- -- 31
2019-11-30 07:00:00 15 12 Nordeste 19 Nordeste -- -- -- 31
2019-11-30 06:00:00 15 13 Nordeste 23 Nordeste -- -- -- 31
2019-11-30 05:00:00 14.7 10 Este 27 Este -- -- -- 33
2019-11-30 04:00:00 15 14 Este 30 Nordeste -- -- -- 33
2019-11-30 03:00:00 15.1 18 Este 30 Nordeste -- -- -- 33
2019-11-30 02:00:00 15.1 14 Este 31 Nordeste -- -- -- 33
2019-11-30 01:00:00 15.2 13 Este 35 Nordeste -- -- -- 32
2019-11-30 00:00:00 15.6 19 Nordeste 31 Nordeste -- -- -- 32
2019-11-29 23:00:00 15.7 10 Este 32 Nordeste -- -- -- 34
2019-11-29 22:00:00 15.9 18 Nordeste 34 Nordeste -- -- -- 34
2019-11-29 21:00:00 15.8 15 Este 32 Nordeste -- -- -- 34
2019-11-29 20:00:00 15.7 11 Este 24 Este -- -- -- 34
2019-11-29 19:00:00 15.9 11 Nordeste 28 Nordeste -- -- -- 34
2019-11-29 18:00:00 15.8 4 Nordeste 23 Nordeste -- -- -- 35
2019-11-29 17:00:00 18.3 3 Sur 12 Este -- -- -- 31
2019-11-29 16:00:00 19.7 4 Sudeste 13 Este -- -- -- 31
2019-11-29 15:00:00 19.9 6 Sudeste 17 Sudeste -- -- -- 33
2019-11-29 14:00:00 18.4 3 Este 22 Sudeste -- -- -- 30
2019-11-29 13:00:00 18 6 Este 26 Nordeste -- -- -- 33
2019-11-29 12:00:00 17.1 9 Este 29 Este -- -- -- 36
2019-11-29 11:00:00 16.7 6 Este 40 Este -- -- -- 38
2019-11-29 10:00:00 15.8 19 Nordeste 48 Nordeste -- -- -- 41
2019-11-29 09:00:00 15.2 28 Nordeste 46 Nordeste -- -- -- 38
2019-11-29 08:00:00 13.7 22 Nordeste 35 Este -- -- -- 41
2019-11-29 07:00:00 13.6 24 Nordeste 37 Este -- -- -- 42
2019-11-29 06:00:00 13.4 15 Este 29 Este -- -- -- 44
2019-11-29 05:00:00 13.6 15 Este 33 Este -- -- -- 44
2019-11-29 04:00:00 13.8 18 Este 32 Este -- -- -- 44
2019-11-29 03:00:00 13.4 13 Este 35 Nordeste -- -- -- 46
2019-11-29 02:00:00 13.9 23 Nordeste 36 Nordeste -- -- -- 44
2019-11-29 01:00:00 14.5 16 Nordeste 27 Nordeste -- -- -- 41
2019-11-29 00:00:00 14.4 14 Nordeste 24 Nordeste -- -- -- 41
2019-11-28 23:00:00 14.3 10 Este 21 Este -- -- -- 42
2019-11-28 22:00:00 14.8 9 Nordeste 26 Nordeste -- -- -- 40
2019-11-28 21:00:00 14.3 6 Este 21 Nordeste -- -- -- 42
2019-11-28 20:00:00 14.5 7 Nordeste 20 Nordeste -- -- -- 43
2019-11-28 19:00:00 13.9 9 Nordeste 23 Nordeste -- -- -- 46
2019-11-28 18:00:00 13.7 15 Nordeste 22 Nordeste -- -- -- 46
2019-11-28 17:00:00 13.6 5 Este 15 Este -- -- -- 49
2019-11-28 16:00:00 13.5 2 Este 14 Nordeste -- -- -- 59
2019-11-28 15:00:00 13.9 3 Este 16 Nordeste -- -- -- 63
2019-11-28 14:00:00 14.1 3 Este 12 Sudeste -- -- -- 65
2019-11-28 13:00:00 15 5 Este 15 Sudeste -- -- -- 62
2019-11-28 12:00:00 13.8 4 Este 14 Este -- -- -- 60
2019-11-28 11:00:00 13.9 5 Este 17 Nordeste -- -- -- 56
2019-11-28 10:00:00 12.8 4 Este 14 Nordeste -- -- -- 56
2019-11-28 09:00:00 12.5 4 Este 13 Nordeste -- -- -- 56
2019-11-28 08:00:00 11.3 7 Este 16 Nordeste -- -- -- 57
2019-11-28 07:00:00 10.8 3 Este 22 Nordeste -- -- -- 60
2019-11-28 06:00:00 11 11 Nordeste 20 Nordeste -- -- -- 61
2019-11-28 05:00:00 10.9 11 Este 27 Nordeste -- -- -- 64
2019-11-28 04:00:00 11.2 21 Nordeste 30 Nordeste -- -- -- 62
2019-11-28 03:00:00 11.2 17 Nordeste 24 Este -- -- -- 64
2019-11-28 02:00:00 11.3 18 Nordeste 26 Nordeste -- -- -- 64
2019-11-28 01:00:00 10.6 12 Este 27 Nordeste -- -- -- 68
2019-11-28 00:00:00 10.5 11 Este 25 Nordeste -- -- -- 69
2019-11-27 23:00:00 10.6 14 Este 26 Este -- -- -- 70
2019-11-27 22:00:00 10.7 15 Nordeste 30 Nordeste -- -- -- 68
2019-11-27 21:00:00 10.7 23 Nordeste 32 Nordeste -- -- -- 69
2019-11-27 20:00:00 10.5 15 Este 30 Nordeste -- -- -- 70
2019-11-27 19:00:00 11.2 11 Nordeste 17 Nordeste -- -- -- 67
2019-11-27 18:00:00 11.3 2 Este 5 Nordeste -- -- -- 70
2019-11-27 17:00:00 14.2 2 Este 10 Este -- -- -- 76
2019-11-27 16:00:00 13.2 0 Calma 10 Este -- -- -- 82
2019-11-27 15:00:00 13.4 3 Este 13 Nordeste -- -- -- 86
2019-11-27 14:00:00 13.8 5 Este 14 Sudeste -- -- -- 85
2019-11-27 13:00:00 13.5 3 Este 15 Sudeste -- -- -- 78
2019-11-27 05:00:00 -- -- -- -- -- -- -- -- --
2019-11-27 04:00:00 -- -- -- -- -- -- -- -- --
2019-11-27 03:00:00 11.2 10 Este 21 Nordeste -- -- -- 72
2019-11-27 02:00:00 11.7 12 Este 23 Nordeste -- -- -- 69
2019-11-27 01:00:00 12 12 Este 29 Este -- -- -- 67
2019-11-27 00:00:00 12 17 Este 31 Nordeste -- -- -- 68
2019-11-26 23:00:00 12.4 18 Este 32 Este -- -- -- 64
2019-11-26 22:00:00 12.4 19 Este 31 Nordeste -- -- -- 59
2019-11-26 21:00:00 12.4 18 Este 25 Este -- -- -- 60
2019-11-26 20:00:00 13 15 Este 28 Este -- -- -- 57
2019-11-26 19:00:00 13.2 13 Este 23 Nordeste -- -- -- 56
2019-11-26 18:00:00 12.4 4 Este 14 Nordeste -- -- -- 71
2019-11-26 17:00:00 15.1 3 Nordeste 8 Este -- -- -- 65
2019-11-26 16:00:00 17.1 2 Este 8 Sudeste -- -- -- 67
2019-11-26 15:00:00 14.9 3 Este 14 Este -- -- -- 80
2019-11-26 14:00:00 14.9 3 Este 14 Nordeste -- -- -- 77
2019-11-26 13:00:00 15.3 4 Este 12 Nordeste -- -- -- 73
2019-11-26 12:00:00 14.2 3 Este 21 Nordeste -- -- -- 77
2019-11-26 11:00:00 14.5 3 Este 14 Este -- -- -- 70
2019-11-26 10:00:00 14.6 3 Este 13 Sudeste -- -- -- 70
2019-11-26 09:00:00 14.4 3 Este 15 Nordeste -- -- -- 67
2019-11-26 08:00:00 12.8 7 Este 19 Nordeste -- -- -- 69
2019-11-26 07:00:00 12.4 12 Nordeste 25 Este -- -- -- 68
2019-11-26 06:00:00 12 11 Este 25 Este -- -- -- 69
2019-11-26 05:00:00 12.1 9 Este 24 Nordeste -- -- -- 68
2019-11-26 04:00:00 12.6 12 Nordeste 24 Nordeste -- -- -- 63
2019-11-26 03:00:00 12.9 15 Este 27 Este -- -- -- 61
2019-11-26 02:00:00 12.5 18 Este 29 Este -- -- -- 65
2019-11-26 01:00:00 12.9 22 Nordeste 28 Nordeste -- -- -- 62
2019-11-26 00:00:00 13.2 19 Este 33 Este -- -- -- 61
2019-11-25 23:00:00 13.3 15 Este 29 Nordeste -- -- -- 61
2019-11-25 22:00:00 13.2 17 Este 26 Este -- -- -- 61
2019-11-25 21:00:00 12.4 17 Este 27 Nordeste -- -- -- 64
2019-11-25 20:00:00 9.5 10 Este 26 Nordeste -- -- -- 88
2019-11-25 19:00:00 13.2 12 Este 24 Nordeste -- -- -- 54
2019-11-25 18:00:00 13.8 9 Este 23 Nordeste -- -- -- 49
2019-11-25 17:00:00 14.2 12 Nordeste 17 Nordeste -- -- -- 45
2019-11-25 16:00:00 11.2 4 Este 14 Nordeste -- -- -- 95
2019-11-25 15:00:00 12.7 3 Este 12 Este -- -- -- 87
2019-11-25 14:00:00 14.6 4 Este 13 Este -- -- -- 73
2019-11-25 13:00:00 15.4 3 Este 11 Sudeste -- -- -- 60
2019-11-25 12:00:00 15.2 4 Este 17 Nordeste -- -- -- 68
2019-11-25 11:00:00 15.5 4 Este 12 Este -- -- -- 42
2019-11-25 10:00:00 16.1 5 Este 14 Nordeste -- -- -- 23
2019-11-25 09:00:00 15.3 3 Este 15 Nordeste -- -- -- 21
2019-11-25 08:00:00 13.5 9 Nordeste 23 Nordeste -- -- -- 15
2019-11-25 07:00:00 13.4 13 Este 22 Este -- -- -- 9
2019-11-25 06:00:00 12.7 13 Nordeste 18 Este -- -- -- 11
2019-11-25 05:00:00 12.4 8 Nordeste 13 Este -- -- -- 15
2019-11-25 04:00:00 11.7 5 Nordeste 18 Nordeste -- -- -- 18
2019-11-25 03:00:00 14.1 13 Nordeste 22 Nordeste -- -- -- 13
2019-11-25 02:00:00 11.5 3 Nordeste 10 Nordeste -- -- -- 25
2019-11-25 01:00:00 12.3 5 Nordeste 8 Nordeste -- -- -- 21
2019-11-25 00:00:00 12.5 4 Nordeste 11 Nordeste -- -- -- 23
2019-11-24 23:00:00 13.3 6 Este 23 Este -- -- -- 18
2019-11-24 22:00:00 12.7 9 Nordeste 25 Nordeste -- -- -- 17
2019-11-24 21:00:00 12.5 17 Nordeste 26 Nordeste -- -- -- 16
2019-11-24 20:00:00 10.9 9 Este 26 Nordeste -- -- -- 37
2019-11-24 19:00:00 12 13 Nordeste 23 Nordeste -- -- -- 30
2019-11-24 18:00:00 10.6 4 Este 21 Norte -- -- -- 46
2019-11-24 17:00:00 11 6 Norte 17 Norte -- -- -- 48
2019-11-24 16:00:00 10.8 3 Este 13 Sudeste -- -- -- 96
2019-11-24 15:00:00 12.5 4 Este 14 Este -- -- -- 87
2019-11-24 14:00:00 12.6 8 Este 17 Este -- -- -- 86
2019-11-24 13:00:00 10.9 3 Este 37 Nordeste -- -- -- 100
2019-11-24 12:00:00 10 11 Este 43 Nordeste -- -- -- 100
2019-11-24 11:00:00 9.4 8 Este 39 Nordeste -- -- -- 100
2019-11-24 10:00:00 9.7 9 Este 34 Nordeste -- -- -- 100
2019-11-24 09:00:00 9.7 6 Este 38 Este -- -- -- 100
2019-11-24 08:00:00 9.8 29 Nordeste 46 Nordeste -- -- -- 100
2019-11-24 07:00:00 9.6 33 Nordeste 50 Nordeste -- -- -- 100
2019-11-24 06:00:00 9.3 20 Este 51 Este -- -- -- 100
2019-11-24 05:00:00 8.8 12 Este 46 Nordeste -- -- -- 100
2019-11-24 04:00:00 8.6 13 Este 48 Nordeste -- -- -- 100
2019-11-24 03:00:00 9 24 Este 48 Nordeste -- -- -- 100
2019-11-24 02:00:00 8.4 21 Este 44 Sudeste -- -- -- 100
2019-11-24 01:00:00 8.7 17 Este 46 Sudeste -- -- -- 100
2019-11-24 00:00:00 9 20 Este 55 Sudeste -- -- -- 100
2019-11-23 23:00:00 9 16 Este 50 Sudeste -- -- -- 100
2019-11-23 22:00:00 8.9 17 Sudeste 46 Sudeste -- -- -- 100
2019-11-23 21:00:00 8.2 9 Este 43 Nordeste -- -- -- 100
2019-11-23 20:00:00 9.1 14 Este 60 Sudeste -- -- -- 100
2019-11-23 19:00:00 9.7 20 Este 48 Sudeste -- -- -- 100
2019-11-23 18:00:00 10.8 8 Este 38 Sudeste -- -- -- 100
2019-11-23 17:00:00 11.8 5 Este 20 Norte -- -- -- 100
2019-11-23 16:00:00 11.7 7 Nordeste 24 Nordeste -- -- -- 99
2019-11-23 15:00:00 12.4 6 Sudeste 24 Este -- -- -- 99
2019-11-23 14:00:00 12 6 Este 27 Sudeste -- -- -- 99
2019-11-23 13:00:00 12.5 5 Sudeste 18 Nordeste -- -- -- 95
2019-11-23 12:00:00 12.7 5 Nordeste 25 Nordeste -- -- -- 91
2019-11-23 11:00:00 13.2 6 Sur 20 Noroeste -- -- -- 89
2019-11-23 10:00:00 11.7 10 Noroeste 27 Noroeste -- -- -- 97
2019-11-23 09:00:00 11.5 6 Oeste 19 Nordeste -- -- -- 99
2019-11-23 08:00:00 11.2 5 Oeste 15 Noroeste -- -- -- 100
2019-11-23 07:00:00 11.3 5 Oeste 18 Nordeste -- -- -- 99
2019-11-23 06:00:00 10.9 4 Sudoeste 22 Sudoeste -- -- -- 98
2019-11-23 05:00:00 10.6 4 Oeste 20 Noroeste -- -- -- 99
2019-11-23 04:00:00 10.4 6 Oeste 16 Sudoeste -- -- -- 95
2019-11-23 03:00:00 10.6 7 Oeste 21 Oeste -- -- -- 98
2019-11-23 02:00:00 10.7 7 Oeste 21 Oeste -- -- -- 97
2019-11-23 01:00:00 10.8 7 Sudoeste 19 Oeste -- -- -- 96
2019-11-23 00:00:00 11.2 7 Oeste 17 Oeste -- -- -- 98
2019-11-22 23:00:00 11.6 7 Noroeste 18 Noroeste -- -- -- 92
2019-11-22 22:00:00 11.8 5 Noroeste 22 Norte -- -- -- 91
2019-11-22 21:00:00 12.1 6 Noroeste 18 Oeste -- -- -- 91
2019-11-22 20:00:00 11.9 3 Oeste 17 Oeste -- -- -- 96
2019-11-22 19:00:00 12.1 4 Sudeste 13 Noroeste -- -- -- 89
2019-11-22 18:00:00 12.7 3 Sudeste 7 Sudeste -- -- -- 85
2019-11-22 17:00:00 15.9 3 Sudeste 12 Este -- -- -- 68
2019-11-22 16:00:00 16.1 5 Oeste 18 Oeste -- -- -- 55
2019-11-22 15:00:00 15.8 9 Oeste 26 Oeste -- -- -- 52
2019-11-22 14:00:00 16.7 6 Sudoeste 19 Oeste -- -- -- 47
2019-11-22 13:00:00 16.2 5 Sudoeste 15 Oeste -- -- -- 58
2019-11-22 12:00:00 14.3 9 Oeste 16 Oeste -- -- -- 75
2019-11-22 11:00:00 13.9 6 Oeste 11 Oeste -- -- -- 74
2019-11-22 10:00:00 14.7 4 Sudeste 12 Oeste -- -- -- 70
2019-11-22 09:00:00 11.7 6 Oeste 15 Noroeste -- -- -- 86
2019-11-22 08:00:00 10.8 3 Oeste 8 Nordeste -- -- -- 72
2019-11-22 07:00:00 10.4 4 Oeste 9 Oeste -- -- -- 80
2019-11-22 06:00:00 9.9 3 Oeste 13 Noroeste -- -- -- 96
2019-11-22 05:00:00 10.5 5 Noroeste 17 Oeste -- -- -- 96
2019-11-22 04:00:00 10.6 5 Noroeste 20 Oeste -- -- -- 98
2019-11-22 03:00:00 10.6 6 Oeste 26 Oeste -- -- -- 95
2019-11-22 02:00:00 11.2 4 Oeste 18 Noroeste -- -- -- 95
2019-11-22 01:00:00 11.3 3 Oeste 21 Oeste -- -- -- 97
2019-11-22 00:00:00 11.3 4 Oeste 13 Noroeste -- -- -- 97
2019-11-21 23:00:00 11.1 6 Noroeste 24 Oeste -- -- -- 99
2019-11-21 22:00:00 11.1 7 Sudoeste 24 Oeste -- -- -- 98
2019-11-21 21:00:00 11.3 8 Oeste 23 Sudoeste -- -- -- 96
2019-11-21 20:00:00 11.4 6 Sudoeste 28 Oeste -- -- -- 93
2019-11-21 19:00:00 11.3 6 Sudoeste 23 Oeste -- -- -- 95
2019-11-21 18:00:00 11.5 8 Oeste 31 Sudoeste -- -- -- 89
2019-11-21 17:00:00 13.1 7 Oeste 20 Oeste -- -- -- 81
2019-11-21 16:00:00 14.9 8 Oeste 27 Oeste -- -- -- 69
2019-11-21 15:00:00 14.6 10 Oeste 25 Oeste -- -- -- 68
2019-11-21 14:00:00 13.8 13 Oeste 24 Oeste -- -- -- 72
2019-11-21 13:00:00 12.8 15 Oeste 24 Oeste -- -- -- 81
2019-11-21 12:00:00 12.6 15 Oeste 27 Oeste -- -- -- 71
2019-11-21 11:00:00 10.3 17 Oeste 26 Oeste -- -- -- 99
2019-11-21 10:00:00 9.8 14 Oeste 29 Oeste -- -- -- 100
2019-11-21 09:00:00 9.2 15 Oeste 27 Oeste -- -- -- 100
2019-11-21 08:00:00 9 18 Oeste 28 Oeste -- -- -- 100
2019-11-21 07:00:00 -- -- -- -- -- -- -- -- --
2019-11-21 06:00:00 -- -- -- -- -- -- -- -- --
2019-11-21 05:00:00 -- -- -- -- -- -- -- -- --
2019-11-21 04:00:00 -- -- -- -- -- -- -- -- --
2019-11-21 03:00:00 -- -- -- -- -- -- -- -- --
2019-11-21 02:00:00 -- -- -- -- -- -- -- -- --
2019-11-21 01:00:00 -- -- -- -- -- -- -- -- --
2019-11-21 00:00:00 -- -- -- -- -- -- -- -- --
2019-11-20 23:00:00 -- -- -- -- -- -- -- -- --
2019-11-20 22:00:00 -- -- -- -- -- -- -- -- --
2019-11-20 21:00:00 -- -- -- -- -- -- -- -- --
2019-11-20 20:00:00 -- -- -- -- -- -- -- -- --
2019-11-20 19:00:00 9.8 3 Oeste 13 Oeste -- -- -- 94
2019-11-20 18:00:00 10.8 9 Oeste 17 Oeste -- -- -- 89
2019-11-20 17:00:00 13.3 2 Este 19 Oeste -- -- -- 83
2019-11-20 16:00:00 15.4 3 Este 9 Noroeste -- -- -- 77
2019-11-20 15:00:00 15.1 4 Este 9 Este -- -- -- 78
2019-11-20 14:00:00 15.2 4 Sudeste 11 Este -- -- -- 77
2019-11-20 13:00:00 14.6 5 Sudeste 10 Este -- -- -- 73
2019-11-20 12:00:00 12.9 4 Sudeste 11 Sudeste -- -- -- 81
2019-11-20 11:00:00 13.5 2 Sudeste 13 Sudeste -- -- -- 75
2019-11-20 10:00:00 10.9 4 Oeste 6 Sudoeste -- -- -- 75
2019-11-20 09:00:00 12.4 3 Sudeste 8 Oeste -- -- -- 75
2019-11-20 08:00:00 8.3 0 Calma 9 Norte -- -- -- 89
2019-11-20 07:00:00 7.5 2 Oeste 10 Noroeste -- -- -- 90
2019-11-20 06:00:00 7.6 3 Norte 9 Noroeste -- -- -- 88
2019-11-20 05:00:00 7.2 2 Noroeste 5 Oeste -- -- -- 91
2019-11-20 04:00:00 7 4 Oeste 9 Oeste -- -- -- 89
2019-11-20 03:00:00 7.3 2 Oeste 8 Oeste -- -- -- 85
2019-11-20 02:00:00 7.8 3 Noroeste 6 Norte -- -- -- 82
2019-11-20 01:00:00 7.1 3 Oeste 9 Noroeste -- -- -- 83
2019-11-20 00:00:00 6.9 4 Oeste 9 Sur -- -- -- 95
2019-11-19 23:00:00 6.9 5 Oeste 10 Oeste -- -- -- 97
2019-11-19 22:00:00 7.3 4 Sudoeste 11 Oeste -- -- -- 94
2019-11-19 21:00:00 7.8 3 Oeste 20 Noroeste -- -- -- 94
2019-11-19 20:00:00 7.6 3 Sur 15 Noroeste -- -- -- 94
2019-11-19 19:00:00 8.2 3 Sudeste 9 Sudoeste -- -- -- 92
2019-11-19 18:00:00 9.7 6 Oeste 16 Oeste -- -- -- 88
2019-11-19 17:00:00 12.2 4 Norte 17 Noroeste -- -- -- 69
2019-11-19 16:00:00 13.5 4 Oeste 21 Noroeste -- -- -- 74
2019-11-19 15:00:00 12.3 3 Noroeste 15 Oeste -- -- -- 82
2019-11-19 14:00:00 10.9 5 Sudeste 15 Noroeste -- -- -- 87
2019-11-19 13:00:00 10.9 3 Oeste 15 Sudeste -- -- -- 93
2019-11-19 12:00:00 10.8 3 Este 21 Norte -- -- -- 98
2019-11-19 11:00:00 9.8 2 Sudeste 17 Nordeste -- -- -- 100
2019-11-19 10:00:00 9.5 4 Sur 24 Nordeste -- -- -- 100
2019-11-19 09:00:00 8.9 6 Este -- -- -- -- -- 100
2019-11-19 08:00:00 7.7 8 Este 21 Este -- -- -- 100
2019-11-19 07:00:00 7.6 8 Este 31 Nordeste -- -- -- 100
2019-11-19 06:00:00 6.9 18 Nordeste 34 Nordeste -- -- -- 100
2019-11-19 05:00:00 6.4 18 Nordeste 33 Nordeste -- -- -- 99
2019-11-19 04:00:00 7.1 22 Nordeste 39 Nordeste -- -- -- 95
2019-11-19 03:00:00 6.7 24 Nordeste 35 Nordeste -- -- -- 100
2019-11-19 02:00:00 6.9 22 Nordeste 35 Nordeste -- -- -- 100
2019-11-19 01:00:00 7.3 11 Este 40 Nordeste -- -- -- 100
2019-11-19 00:00:00 6.7 18 Este 39 Nordeste -- -- -- 100
2019-11-18 23:00:00 6.6 24 Nordeste 41 Nordeste -- -- -- 100
2019-11-18 22:00:00 6.4 24 Nordeste 44 Nordeste -- -- -- 100
2019-11-18 21:00:00 7 24 Nordeste 45 Nordeste -- -- -- 100
2019-11-18 20:00:00 7 27 Nordeste 46 Nordeste -- -- -- 100
2019-11-18 19:00:00 6.8 19 Este 44 Nordeste -- -- -- 100
2019-11-18 18:00:00 6.7 6 Este 29 Sudeste -- -- -- 98
2019-11-18 17:00:00 8.1 5 Este 18 Este -- -- -- 92
2019-11-18 16:00:00 8.9 3 Este 20 Este -- -- -- 94
2019-11-18 15:00:00 9 3 Este 17 Sudeste -- -- -- 95
2019-11-18 14:00:00 9 4 Este 21 Este -- -- -- 95
2019-11-18 13:00:00 8.7 3 Este 17 Este -- -- -- 100
2019-11-18 12:00:00 9.4 5 Este 14 Este -- -- -- 100
2019-11-18 11:00:00 8 2 Este 13 Este -- -- -- 100
2019-11-18 10:00:00 6.8 3 Este 18 Nordeste -- -- -- 100
2019-11-18 09:00:00 6 5 Este 20 Nordeste -- -- -- 100
2019-11-18 08:00:00 5.2 4 Este 17 Nordeste -- -- -- 100
2019-11-18 07:00:00 5.5 8 Este 20 Nordeste -- -- -- 100
2019-11-18 06:00:00 5.3 2 Este 22 Este -- -- -- 100
2019-11-18 05:00:00 5 11 Nordeste 21 Nordeste -- -- -- 100
2019-11-18 04:00:00 4.7 5 Nordeste 13 Este -- -- -- 100
2019-11-18 03:00:00 4.7 6 Este 16 Nordeste -- -- -- 100
2019-11-18 02:00:00 4.9 5 Este 25 Nordeste -- -- -- 100
2019-11-18 01:00:00 5.3 5 Este 27 Nordeste -- -- -- 100
2019-11-18 00:00:00 5.6 6 Este 33 Este -- -- -- 100
2019-11-17 23:00:00 6 12 Este 46 Nordeste -- -- -- 100
2019-11-17 22:00:00 6.3 13 Este 49 Este -- -- -- 100
2019-11-17 21:00:00 6.3 11 Este 59 Este -- -- -- 100
2019-11-17 20:00:00 6.1 14 Este 57 Este -- -- -- 100
2019-11-17 19:00:00 6.5 10 Este 49 Nordeste -- -- -- 100
2019-11-17 18:00:00 6.8 14 Este 52 Nordeste -- -- -- 100
2019-11-17 17:00:00 6.8 10 Este 45 Este -- -- -- 100
2019-11-17 16:00:00 5.9 24 Este 53 Nordeste -- -- -- 100
2019-11-17 15:00:00 6.7 10 Este 51 Nordeste -- -- -- 100
2019-11-17 14:00:00 6.8 14 Este 48 Este -- -- -- 100
2019-11-17 13:00:00 5.9 10 Este 59 Nordeste -- -- -- 100
2019-11-17 12:00:00 6 10 Este 44 Nordeste -- -- -- 100
2019-11-17 11:00:00 6 23 Este 58 Nordeste -- -- -- 100
2019-11-17 10:00:00 6.4 10 Este 51 Sudeste -- -- -- 100
2019-11-17 09:00:00 5.8 11 Este 57 Este -- -- -- 100
2019-11-17 08:00:00 6.3 17 Este 51 Este -- -- -- 100
2019-11-17 07:00:00 5.7 10 Este 56 Sudeste -- -- -- 100
2019-11-17 06:00:00 5.7 14 Este 47 Este -- -- -- 100
2019-11-17 05:00:00 6.1 10 Este 47 Nordeste -- -- -- 100
2019-11-17 04:00:00 6 18 Este 51 Este -- -- -- 100
2019-11-17 03:00:00 6.3 13 Este 42 Este -- -- -- 100
2019-11-17 02:00:00 6.2 20 Este 58 Este -- -- -- 100
2019-11-17 01:00:00 6.3 18 Este 57 Sudeste -- -- -- 100
2019-11-17 00:00:00 6.5 16 Este 63 Este -- -- -- 100
2019-11-16 23:00:00 6.7 16 Este 62 Este -- -- -- 100
2019-11-16 22:00:00 6.5 14 Este 63 Este -- -- -- 100
2019-11-16 21:00:00 6.3 18 Este 68 Este -- -- -- 100
2019-11-16 20:00:00 6.9 27 Este 66 Este -- -- -- 100
2019-11-16 19:00:00 6.6 20 Este 79 Sudeste -- -- -- 100
2019-11-16 18:00:00 6 24 Este 57 Nordeste -- -- -- 100
2019-11-16 17:00:00 6.4 22 Este 54 Nordeste -- -- -- 100
2019-11-16 16:00:00 6.7 26 Nordeste 51 Nordeste -- -- -- 100
2019-11-16 15:00:00 6.6 14 Este 57 Nordeste -- -- -- 100
2019-11-16 14:00:00 7 31 Nordeste 58 Nordeste -- -- -- 100
2019-11-16 13:00:00 6.3 21 Este 51 Sudeste -- -- -- 100
2019-11-16 12:00:00 5.6 22 Este 66 Sudeste -- -- -- 100
2019-11-16 11:00:00 6.4 30 Sudeste 69 Sudeste -- -- -- 100
2019-11-16 10:00:00 6 24 Este 52 Sudeste -- -- -- 100
2019-11-16 09:00:00 6.5 22 Este 55 Sudeste -- -- -- 100
2019-11-16 08:00:00 6.2 23 Este 66 Sudeste -- -- -- 100
2019-11-16 07:00:00 6.2 24 Este 61 Sudeste -- -- -- 100
2019-11-16 06:00:00 6.5 23 Este 60 Sudeste -- -- -- 100
2019-11-16 05:00:00 6.2 24 Este 64 Sudeste -- -- -- 100
2019-11-16 04:00:00 6.3 22 Este 69 Sudeste -- -- -- 100
2019-11-16 03:00:00 6.1 23 Este 60 Sudeste -- -- -- 100
2019-11-16 02:00:00 6.3 19 Este 67 Sudeste -- -- -- 100
2019-11-16 01:00:00 6.4 35 Nordeste 69 Nordeste -- -- -- 100
2019-11-16 00:00:00 6 19 Este 62 Este -- -- -- 100
2019-11-15 23:00:00 6.4 17 Este 60 Este -- -- -- 100
2019-11-15 22:00:00 6.3 23 Este 60 Sudeste -- -- -- 100
2019-11-15 21:00:00 6.9 21 Este 70 Este -- -- -- 100
2019-11-15 20:00:00 6.2 25 Este 67 Este -- -- -- 100
2019-11-15 19:00:00 6.2 26 Este 62 Este -- -- -- 100
2019-11-15 18:00:00 6.6 20 Este 59 Este -- -- -- 100
2019-11-15 17:00:00 6.1 23 Este 69 Sudeste -- -- -- 100
2019-11-15 16:00:00 6.4 17 Este 52 Sudeste -- -- -- 100
2019-11-15 15:00:00 6.7 19 Este 52 Sudeste -- -- -- 100
2019-11-15 14:00:00 7.7 22 Este 48 Sudeste -- -- -- 100
2019-11-15 13:00:00 7.8 19 Este 49 Sudeste -- -- -- 100
2019-11-15 12:00:00 8.1 19 Este 59 Sudeste -- -- -- 100
2019-11-15 11:00:00 8.4 24 Este 59 Sudeste -- -- -- 100
2019-11-15 10:00:00 8.6 25 Este 54 Este -- -- -- 100
2019-11-15 09:00:00 8.3 13 Este 54 Este -- -- -- 100
2019-11-15 08:00:00 8.3 20 Este 58 Sudeste -- -- -- 100
2019-11-15 07:00:00 7.9 20 Este 58 Sudeste -- -- -- 100
2019-11-15 06:00:00 8 26 Este 60 Nordeste -- -- -- 100
2019-11-15 05:00:00 7.1 17 Este 61 Nordeste -- -- -- 100
2019-11-15 04:00:00 6.8 40 Nordeste 61 Nordeste -- -- -- 100
2019-11-15 03:00:00 7.8 21 Este 61 Este -- -- -- 100
2019-11-15 02:00:00 7.1 17 Este 64 Sudeste -- -- -- 100
2019-11-15 01:00:00 7.5 22 Este 58 Este -- -- -- 100
2019-11-15 00:00:00 8.4 10 Este 59 Nordeste -- -- -- 100